Time;durP1;ratioP1;P1;durP2;ratioP2;P2;SDS_P1;SDS_P2;PMS_P1;PMS_P2;Temp;Humidity;BMP_temperature;BMP_pressure;BME280_temperature;BME280_humidity;BME280_pressure;Samples;Min_cycle;Max_cycle;Signal;HPM_P1;HPM_P2
2023/06/30 00:01:48;;;;;;;0.57;0.57;;;;;;;22.44;51.50;95113.63;4360786;32;20306;-57
2023/06/30 00:04:18;;;;;;;0.90;0.90;;;;;;;22.39;50.59;95115.87;4349125;32;20189;-57
2023/06/30 00:06:44;;;;;;;1.90;1.33;;;;;;;22.39;52.06;95113.19;4359385;32;20276;-57
2023/06/30 00:09:10;;;;;;;0.97;0.97;;;;;;;22.34;52.45;95124.34;4347044;32;20205;-57
2023/06/30 00:11:38;;;;;;;1.43;0.80;;;;;;;22.36;53.38;95122.03;4344141;32;20212;-57
2023/06/30 00:14:03;;;;;;;0.50;0.50;;;;;;;22.41;52.26;95117.06;4350910;32;20193;-58
2023/06/30 00:16:31;;;;;;;0.63;0.63;;;;;;;22.46;52.17;95107.81;4340770;32;20250;-60
2023/06/30 00:18:57;;;;;;;0.63;0.63;;;;;;;22.44;52.87;95113.63;4347828;32;20204;-57
2023/06/30 00:21:22;;;;;;;0.57;0.57;;;;;;;22.42;52.72;95102.41;4345607;32;20249;-56
2023/06/30 00:23:47;;;;;;;0.70;0.70;;;;;;;22.39;53.06;95097.75;4354060;32;20224;-58
2023/06/30 00:26:13;;;;;;;0.60;0.60;;;;;;;22.39;52.63;95096.97;4362368;32;20224;-58
2023/06/30 00:28:38;;;;;;;1.27;1.20;;;;;;;22.37;53.02;95088.44;4345136;32;20185;-57
2023/06/30 00:31:03;;;;;;;0.57;0.57;;;;;;;22.34;53.91;95087.25;4343469;32;20185;-57
2023/06/30 00:33:29;;;;;;;1.03;1.03;;;;;;;22.41;53.35;95084.63;4348827;32;20185;-61
2023/06/30 00:35:54;;;;;;;1.07;1.07;;;;;;;22.39;53.27;95081.53;4349860;32;20223;-57
2023/06/30 00:38:20;;;;;;;0.70;0.70;;;;;;;22.35;53.55;95074.53;4341402;32;20230;-58
2023/06/30 00:40:45;;;;;;;0.73;0.70;;;;;;;22.37;53.73;95069.53;4357253;32;20192;-57
2023/06/30 00:43:10;;;;;;;0.77;0.77;;;;;;;22.34;54.41;95062.94;4357108;32;20197;-57
2023/06/30 00:45:36;;;;;;;0.73;0.73;;;;;;;22.35;54.22;95069.13;4361243;32;20192;-58
2023/06/30 00:48:02;;;;;;;1.97;1.17;;;;;;;22.37;53.97;95066.81;4357814;32;20257;-57
2023/06/30 00:50:27;;;;;;;0.60;0.60;;;;;;;22.35;54.44;95071.81;4362539;32;20200;-57
2023/06/30 00:52:54;;;;;;;0.80;0.80;;;;;;;22.25;54.44;95086.78;4357501;32;20181;-57
2023/06/30 00:55:20;;;;;;;0.63;0.63;;;;;;;22.23;55.17;95089.12;4344089;32;20277;-58
2023/06/30 00:57:45;;;;;;;0.87;0.87;;;;;;;22.21;55.52;95086.00;4359898;32;20266;-57
2023/06/30 01:00:11;;;;;;;0.73;0.73;;;;;;;22.22;55.59;95074.06;4353849;32;20203;-57
2023/06/30 01:03:01;;;;;;;0.80;0.80;;;;;;;22.22;55.77;95077.53;4354949;32;20200;-57
2023/06/30 01:05:36;;;;;;;0.90;0.90;;;;;;;22.21;56.97;95069.78;4354932;32;20212;-57
2023/06/30 01:08:08;;;;;;;1.07;1.07;;;;;;;22.18;57.78;95065.12;4355525;32;20203;-57
2023/06/30 01:10:34;;;;;;;1.00;0.90;;;;;;;22.09;59.98;95072.75;4356755;32;20265;-58
2023/06/30 01:13:02;;;;;;;0.60;0.60;;;;;;;22.10;59.50;95067.00;4344069;32;20198;-58
2023/06/30 01:15:28;;;;;;;1.13;0.77;;;;;;;22.07;59.16;95064.25;4347300;32;20205;-58
2023/06/30 01:17:59;;;;;;;1.77;1.67;;;;;;;22.02;60.01;95061.91;4357016;32;20185;-57
2023/06/30 01:20:30;;;;;;;1.00;1.00;;;;;;;21.94;62.50;95069.13;4341579;32;20207;-57
2023/06/30 01:23:18;;;;;;;0.60;0.60;;;;;;;22.02;60.63;95051.09;4352309;32;20333;-57
2023/06/30 01:25:44;;;;;;;1.20;1.20;;;;;;;21.98;60.24;95047.56;4352156;32;20205;-58
2023/06/30 01:28:10;;;;;;;0.77;0.77;;;;;;;21.91;61.51;95051.75;4356684;32;20255;-58
2023/06/30 01:30:36;;;;;;;1.17;1.13;;;;;;;21.91;61.54;95051.75;4355060;32;20192;-58
2023/06/30 01:33:01;;;;;;;0.60;0.60;;;;;;;21.88;62.23;95046.28;4349700;32;20219;-58
2023/06/30 01:35:27;;;;;;;1.00;1.00;;;;;;;21.86;62.76;95049.38;4360438;32;20238;-57
2023/06/30 01:37:53;;;;;;;0.90;0.90;;;;;;;21.80;62.89;95048.19;4356712;32;20193;-58
2023/06/30 01:40:20;;;;;;;0.87;0.87;;;;;;;21.85;62.73;95047.03;4340847;32;20287;-58
2023/06/30 01:42:47;;;;;;;0.60;0.60;;;;;;;21.77;63.71;95048.91;4340578;32;20259;-59
2023/06/30 01:45:15;;;;;;;0.70;0.70;;;;;;;21.79;64.10;95043.12;4356683;32;20197;-58
2023/06/30 01:47:40;;;;;;;1.57;0.73;;;;;;;21.77;63.62;95048.91;4351818;32;20216;-58
2023/06/30 01:50:07;;;;;;;0.90;0.90;;;;;;;21.74;63.74;95038.06;4356188;32;20201;-58
2023/06/30 01:52:32;;;;;;;0.87;0.87;;;;;;;21.72;63.53;95040.38;4345318;32;20239;-58
2023/06/30 01:54:57;;;;;;;1.10;1.10;;;;;;;21.73;63.63;95048.09;4352834;32;20189;-58
2023/06/30 01:57:23;;;;;;;17.80;2.17;;;;;;;21.71;63.75;95047.69;4358530;32;20196;-58
2023/06/30 01:59:48;;;;;;;0.60;0.60;;;;;;;21.75;63.02;95053.91;4338775;32;20189;-58
2023/06/30 02:02:13;;;;;;;1.00;1.00;;;;;;;21.76;63.58;95054.69;4358911;32;20189;-58
2023/06/30 02:04:39;;;;;;;0.50;0.50;;;;;;;21.71;64.10;95055.00;4359028;32;20193;-58
2023/06/30 02:07:04;;;;;;;1.37;1.27;;;;;;;21.68;64.57;95047.66;4354765;32;20204;-58
2023/06/30 02:09:29;;;;;;;0.70;0.70;;;;;;;21.65;64.46;95051.09;4354327;32;20236;-58
2023/06/30 02:11:55;;;;;;;1.20;1.20;;;;;;;21.61;64.59;95043.72;4343906;32;20225;-58
2023/06/30 02:14:22;;;;;;;1.00;1.00;;;;;;;21.61;65.07;95035.62;4335038;32;20220;-57
2023/06/30 02:16:47;;;;;;;0.93;0.93;;;;;;;21.61;65.52;95037.56;4342590;32;20229;-57
2023/06/30 02:19:12;;;;;;;1.10;1.10;;;;;;;21.64;64.56;95036.81;4348058;32;20188;-57
2023/06/30 02:21:38;;;;;;;1.17;1.07;;;;;;;21.63;64.46;95035.25;4338560;32;20235;-58
2023/06/30 02:24:03;;;;;;;2.53;1.37;;;;;;;21.61;65.32;95046.41;4342557;32;20245;-58
2023/06/30 02:26:29;;;;;;;0.97;0.97;;;;;;;21.52;65.89;95045.94;4346808;32;20190;-58
2023/06/30 02:28:54;;;;;;;2.60;1.90;;;;;;;21.49;66.35;95040.50;4356079;32;20193;-57
2023/06/30 02:31:19;;;;;;;1.07;1.07;;;;;;;21.52;65.91;95047.88;4353205;32;20199;-57
2023/06/30 02:33:45;;;;;;;2.00;1.17;;;;;;;21.53;65.93;95042.09;4343009;32;20193;-57
2023/06/30 02:36:10;;;;;;;0.73;0.73;;;;;;;21.52;66.26;95042.47;4350584;32;20193;-58
2023/06/30 02:38:35;;;;;;;0.83;0.83;;;;;;;21.51;66.16;95044.41;4351630;32;20202;-58
2023/06/30 02:41:01;;;;;;;0.80;0.80;;;;;;;21.51;66.28;95036.31;4349313;32;20193;-58
2023/06/30 02:43:26;;;;;;;1.00;1.00;;;;;;;21.48;66.58;95034.34;4341983;32;20209;-57
2023/06/30 02:45:51;;;;;;;1.10;1.10;;;;;;;21.52;66.71;95035.16;4357945;32;20197;-58
2023/06/30 02:48:17;;;;;;;1.00;1.00;;;;;;;21.50;65.83;95042.06;4351820;32;20233;-57
2023/06/30 02:50:43;;;;;;;1.20;1.20;;;;;;;21.50;66.82;95036.66;4345375;32;20189;-57
2023/06/30 02:53:08;;;;;;;0.80;0.80;;;;;;;21.45;67.54;95029.66;4355528;32;20224;-57
2023/06/30 02:55:34;;;;;;;0.73;0.73;;;;;;;21.48;67.10;95034.34;4344386;32;20181;-55
2023/06/30 02:57:59;;;;;;;1.23;1.23;;;;;;;21.50;67.14;95015.06;4340815;32;20196;-61
2023/06/30 03:00:24;;;;;;;1.03;1.03;;;;;;;21.53;67.04;95022.44;4359594;32;20185;-57
2023/06/30 03:02:50;;;;;;;1.40;1.30;;;;;;;21.54;66.72;95027.47;4346964;32;20176;-57
2023/06/30 03:05:15;;;;;;;0.80;0.80;;;;;;;21.55;66.88;95025.53;4352820;32;20239;-58
2023/06/30 03:07:41;;;;;;;0.63;0.63;;;;;;;21.56;66.16;95035.97;4332517;32;20245;-57
2023/06/30 03:10:07;;;;;;;1.03;0.63;;;;;;;21.53;67.14;95030.53;4323695;32;20213;-57
2023/06/30 03:12:32;;;;;;;0.80;0.80;;;;;;;21.52;66.95;95029.75;4333129;32;20198;-58
2023/06/30 03:14:57;;;;;;;1.13;1.13;;;;;;;21.44;68.21;95033.50;4326458;33;20248;-57
2023/06/30 03:17:23;;;;;;;1.13;1.13;;;;;;;21.46;67.87;95027.75;4332321;32;20193;-57
2023/06/30 03:19:48;;;;;;;1.00;1.00;;;;;;;21.43;68.62;95028.47;4332485;32;20206;-58
2023/06/30 03:22:13;;;;;;;1.57;1.47;;;;;;;21.43;68.84;95025.78;4326121;32;20189;-57
2023/06/30 03:24:39;;;;;;;0.97;0.97;;;;;;;21.33;70.23;95018.38;4334155;32;20194;-57
2023/06/30 03:27:05;;;;;;;1.70;1.63;;;;;;;21.32;70.91;95014.13;4329182;32;20292;-57
2023/06/30 03:29:30;;;;;;;1.20;1.20;;;;;;;21.30;71.43;95008.31;4326889;32;20182;-58
2023/06/30 03:31:55;;;;;;;1.17;1.17;;;;;;;21.33;70.17;95005.66;4334619;33;20212;-58
2023/06/30 03:34:21;;;;;;;0.93;0.93;;;;;;;21.35;71.73;95019.56;4336973;32;20198;-57
2023/06/30 03:36:46;;;;;;;0.73;0.73;;;;;;;21.32;71.68;95003.31;4343567;32;20204;-58
2023/06/30 03:39:11;;;;;;;1.20;1.20;;;;;;;21.36;71.83;95017.63;4330744;32;20315;-57
2023/06/30 03:41:37;;;;;;;0.90;0.90;;;;;;;21.39;71.56;95023.06;4324667;33;20229;-57
2023/06/30 03:44:02;;;;;;;1.00;1.00;;;;;;;21.39;70.54;95025.78;4327785;32;20305;-58
2023/06/30 03:46:27;;;;;;;1.07;1.00;;;;;;;21.45;69.43;95039.69;4320705;33;20247;-58
2023/06/30 03:48:53;;;;;;;1.47;1.40;;;;;;;21.45;70.09;95039.69;4333305;32;20263;-57
2023/06/30 03:51:18;;;;;;;1.30;1.20;;;;;;;21.48;70.75;95030.84;4326935;32;20205;-57
2023/06/30 03:53:43;;;;;;;1.20;1.20;;;;;;;21.48;70.65;95036.25;4326883;32;20300;-58
2023/06/30 03:56:09;;;;;;;1.00;1.00;;;;;;;21.51;69.88;95038.22;4331992;32;20195;-58
2023/06/30 03:58:34;;;;;;;1.33;1.33;;;;;;;21.51;68.93;95038.22;4329981;32;20190;-57
2023/06/30 04:01:00;;;;;;;0.83;0.83;;;;;;;21.55;68.71;95033.63;4325011;33;20178;-58
2023/06/30 04:03:25;;;;;;;1.80;1.80;;;;;;;21.55;69.06;95039.03;4324670;32;20194;-57
2023/06/30 04:05:51;;;;;;;1.30;1.20;;;;;;;21.59;68.26;95039.87;4340444;32;20235;-57
2023/06/30 04:08:16;;;;;;;1.60;1.50;;;;;;;21.59;68.82;95034.47;4348432;32;20181;-58
2023/06/30 04:10:42;;;;;;;1.40;1.40;;;;;;;21.56;70.91;95032.50;4345022;32;20212;-57
2023/06/30 04:13:08;;;;;;;1.23;1.23;;;;;;;21.53;69.44;95035.94;4342696;32;20229;-58
2023/06/30 04:15:33;;;;;;;2.17;2.07;;;;;;;21.54;69.59;95032.09;4338449;32;20185;-57
2023/06/30 04:17:59;;;;;;;0.90;0.90;;;;;;;21.42;71.98;95030.41;4343953;32;20190;-58
2023/06/30 04:20:24;;;;;;;1.83;1.73;;;;;;;21.37;73.50;95027.28;4345533;32;20244;-58
2023/06/30 04:22:49;;;;;;;1.07;1.07;;;;;;;21.32;73.78;95022.97;4341431;32;20356;-58
2023/06/30 04:25:15;;;;;;;1.57;1.47;;;;;;;21.29;75.01;95014.84;4325691;32;20239;-58
2023/06/30 04:27:40;;;;;;;1.07;1.07;;;;;;;21.25;73.82;95015.56;4335083;32;20201;-58
2023/06/30 04:30:07;;;;;;;1.70;1.60;;;;;;;21.17;76.60;95005.84;4342217;32;20189;-57
2023/06/30 04:32:32;;;;;;;1.43;1.43;;;;;;;21.17;74.70;94992.34;4339270;32;20245;-58
2023/06/30 04:34:58;;;;;;;1.63;1.63;;;;;;;21.16;75.78;94982.69;4351129;32;20232;-57
2023/06/30 04:37:23;;;;;;;1.77;1.67;;;;;;;21.02;78.91;94979.81;4356089;32;20253;-58
2023/06/30 04:39:50;;;;;;;1.27;1.27;;;;;;;21.06;78.42;94977.16;4340866;32;20201;-58
2023/06/30 04:42:15;;;;;;;0.80;0.80;;;;;;;21.07;77.45;94976.81;4345146;32;20194;-57
2023/06/30 04:44:41;;;;;;;1.80;1.70;;;;;;;21.08;77.84;94975.66;4346161;32;20243;-58
2023/06/30 04:47:07;;;;;;;1.43;1.23;;;;;;;21.08;79.51;94969.47;4340793;32;20182;-58
2023/06/30 04:49:32;;;;;;;1.87;1.77;;;;;;;21.09;78.16;94973.75;4348405;32;20202;-58
2023/06/30 04:51:58;;;;;;;1.00;1.00;;;;;;;21.12;79.59;94973.78;4343285;32;20190;-57
2023/06/30 04:54:23;;;;;;;6.87;2.90;;;;;;;21.14;79.65;94971.50;4343775;32;20206;-58
2023/06/30 04:56:48;;;;;;;2.30;2.20;;;;;;;21.11;80.10;94969.53;4336880;32;20193;-58
2023/06/30 04:59:14;;;;;;;4.00;1.80;;;;;;;20.99;80.90;94969.75;4339600;32;20208;-58
2023/06/30 05:01:39;;;;;;;8.70;2.17;;;;;;;21.04;80.35;94972.13;4333082;32;20193;-57
2023/06/30 05:04:04;;;;;;;3.33;3.03;;;;;;;21.06;78.69;94972.53;4339320;32;20223;-58
2023/06/30 05:06:29;;;;;;;1.47;1.37;;;;;;;21.11;77.24;94977.63;4358455;32;20193;-59
2023/06/30 05:08:55;;;;;;;2.17;2.07;;;;;;;21.13;80.24;94978.03;4353945;32;20189;-57
2023/06/30 05:11:20;;;;;;;2.23;1.87;;;;;;;21.14;80.96;94979.59;4357119;32;20233;-57
2023/06/30 05:13:45;;;;;;;2.80;2.60;;;;;;;21.15;79.16;94978.44;4344257;32;20238;-57
2023/06/30 05:16:11;;;;;;;1.57;1.57;;;;;;;21.22;80.07;94983.94;4352905;32;20252;-56
2023/06/30 05:18:36;;;;;;;2.47;2.33;;;;;;;21.23;79.56;94985.47;4334928;32;20194;-58
2023/06/30 05:21:02;;;;;;;2.77;2.67;;;;;;;21.25;79.07;94988.59;4356377;32;20193;-57
2023/06/30 05:23:27;;;;;;;2.57;2.37;;;;;;;21.22;79.46;94992.03;4345577;32;20239;-57
2023/06/30 05:25:53;;;;;;;1.73;1.63;;;;;;;21.24;79.08;94988.97;4350082;32;20223;-57
2023/06/30 05:28:18;;;;;;;1.20;1.20;;;;;;;21.30;77.85;95000.22;4342009;32;20245;-58
2023/06/30 05:30:43;;;;;;;3.90;2.50;;;;;;;21.37;76.25;94995.66;4345976;32;20213;-58
2023/06/30 05:33:08;;;;;;;2.20;2.03;;;;;;;21.41;76.89;95001.09;4351710;32;20243;-58
2023/06/30 05:35:34;;;;;;;2.40;1.67;;;;;;;21.43;77.84;94996.09;4350182;32;20189;-57
2023/06/30 05:37:59;;;;;;;2.37;2.27;;;;;;;21.43;76.45;94993.41;4356010;32;20234;-58
2023/06/30 05:40:25;;;;;;;2.17;2.07;;;;;;;21.44;78.21;94993.03;4353570;32;20257;-57
2023/06/30 05:42:50;;;;;;;1.37;1.27;;;;;;;21.42;78.73;94991.84;4342800;32;20259;-57
2023/06/30 05:45:16;;;;;;;1.60;1.60;;;;;;;21.42;77.47;94986.44;4347989;32;20189;-57
2023/06/30 05:47:42;;;;;;;4.17;2.47;;;;;;;21.39;79.27;94987.22;4351199;32;20197;-57
2023/06/30 05:50:07;;;;;;;1.80;1.70;;;;;;;21.40;79.76;94988.75;4358613;32;20221;-58
2023/06/30 05:52:33;;;;;;;2.53;2.33;;;;;;;21.39;77.79;94998.00;4341329;32;20193;-57
2023/06/30 05:54:59;;;;;;;2.17;1.90;;;;;;;21.37;79.34;94989.50;4347423;32;20207;-57
2023/06/30 05:57:26;;;;;;;2.13;2.07;;;;;;;21.34;78.35;94998.31;4338360;32;20189;-57
2023/06/30 05:59:52;;;;;;;2.47;2.30;;;;;;;21.35;78.87;95000.66;4354014;32;20247;-57
2023/06/30 06:02:17;;;;;;;2.97;2.77;;;;;;;21.34;79.23;95003.72;4345270;32;20185;-58
2023/06/30 06:04:43;;;;;;;1.70;1.60;;;;;;;21.28;79.09;95008.66;4348134;32;20216;-57
2023/06/30 06:07:08;;;;;;;2.10;2.00;;;;;;;21.27;79.34;95010.59;4354932;32;20241;-58
2023/06/30 06:09:33;;;;;;;2.43;1.93;;;;;;;21.26;79.32;95003.63;4340795;32;20202;-58
2023/06/30 06:12:03;;;;;;;5.13;4.67;;;;;;;21.30;78.68;95008.31;4347226;32;20234;-58
2023/06/30 06:14:29;;;;;;;2.17;2.07;;;;;;;21.32;79.33;95014.13;4359264;32;20197;-58
2023/06/30 06:16:54;;;;;;;2.07;1.97;;;;;;;21.36;78.24;95023.03;4343660;32;20284;-58
2023/06/30 06:19:20;;;;;;;7.20;3.77;;;;;;;21.05;83.62;95022.25;4336552;32;20344;-57
2023/06/30 06:21:49;;;;;;;4.00;2.73;;;;;;;21.09;80.98;95025.00;4333183;32;20224;-58
2023/06/30 06:24:16;;;;;;;3.30;2.77;;;;;;;21.22;79.42;95023.63;4346870;32;20204;-57
2023/06/30 06:26:42;;;;;;;7.27;3.37;;;;;;;21.27;80.24;95028.69;4350016;32;20185;-58
2023/06/30 06:29:07;;;;;;;3.07;2.83;;;;;;;21.30;79.95;95027.97;4356127;32;20224;-57
2023/06/30 06:31:33;;;;;;;1.90;1.87;;;;;;;21.38;78.61;95023.44;4359730;32;20192;-58
2023/06/30 06:33:58;;;;;;;2.53;2.37;;;;;;;21.40;79.15;95026.56;4338749;32;20241;-58
2023/06/30 06:36:24;;;;;;;2.97;2.73;;;;;;;21.42;78.01;95026.94;4352042;32;20205;-58
2023/06/30 06:38:49;;;;;;;2.77;2.57;;;;;;;21.44;77.72;95027.34;4357473;32;22026;-57
2023/06/30 06:41:14;;;;;;;2.40;2.30;;;;;;;21.48;79.03;95028.16;4355637;32;20193;-57
2023/06/30 06:43:41;;;;;;;3.53;3.33;;;;;;;21.50;77.78;95025.88;4352979;32;20212;-57
2023/06/30 06:46:07;;;;;;;2.80;2.60;;;;;;;21.51;77.48;95032.81;4335969;32;20204;-58
2023/06/30 06:48:32;;;;;;;2.73;2.63;;;;;;;21.45;78.37;95028.91;4336613;32;20189;-57
2023/06/30 06:51:00;;;;;;;3.03;2.77;;;;;;;21.50;78.40;95026.66;4349647;32;20356;-57
2023/06/30 06:53:29;;;;;;;4.53;3.23;;;;;;;21.73;78.64;95029.19;4356791;32;20223;-58
2023/06/30 06:55:56;;;;;;;2.67;2.53;;;;;;;21.53;81.60;95038.63;4343534;32;20186;-59
2023/06/30 06:58:23;;;;;;;3.03;2.90;;;;;;;21.56;80.21;95035.97;4347109;32;20189;-57
2023/06/30 07:00:50;;;;;;;8.67;3.70;;;;;;;21.63;79.62;95029.84;4350889;32;20216;-58
2023/06/30 07:03:16;;;;;;;4.00;3.43;;;;;;;21.62;80.85;95033.69;4346788;32;20189;-57
2023/06/30 07:05:43;;;;;;;3.07;2.87;;;;;;;21.68;80.03;95037.63;4340786;32;20216;-58
2023/06/30 07:08:10;;;;;;;3.27;2.97;;;;;;;21.77;80.68;95031.94;4354842;32;20232;-57
2023/06/30 07:10:35;;;;;;;2.93;2.83;;;;;;;21.79;79.58;95027.72;4339806;32;20193;-58
2023/06/30 07:13:02;;;;;;;2.17;2.07;;;;;;;21.87;79.86;95029.31;4337743;32;20257;-58
2023/06/30 07:15:27;;;;;;;3.37;3.17;;;;;;;21.88;79.69;95030.09;4346126;32;20193;-57
2023/06/30 07:17:53;;;;;;;3.27;2.93;;;;;;;21.80;80.69;95029.25;4335120;32;20215;-58
2023/06/30 07:20:18;;;;;;;2.50;2.30;;;;;;;21.95;79.51;95020.12;4338994;32;20275;-58
2023/06/30 07:22:44;;;;;;;5.07;3.20;;;;;;;21.95;79.74;95024.75;4340177;32;20193;-57
2023/06/30 07:25:09;;;;;;;3.00;2.80;;;;;;;21.97;79.76;95021.69;4354648;32;20246;-57
2023/06/30 07:27:38;;;;;;;3.17;2.97;;;;;;;21.89;80.23;95028.94;4348954;32;20189;-58
2023/06/30 07:30:07;;;;;;;2.40;2.30;;;;;;;21.91;80.12;95027.44;4354485;32;20180;-57
2023/06/30 07:32:34;;;;;;;3.27;3.07;;;;;;;22.08;79.00;95025.28;4356085;32;20201;-57
2023/06/30 07:35:02;;;;;;;3.27;2.27;;;;;;;22.08;79.38;95023.34;4356183;32;20212;-58
2023/06/30 07:37:27;;;;;;;2.47;2.33;;;;;;;21.95;80.33;95036.34;4356937;32;20212;-57
2023/06/30 07:39:52;;;;;;;3.73;3.33;;;;;;;21.87;80.79;95034.72;4348315;32;20266;-57
2023/06/30 07:42:18;;;;;;;3.93;3.50;;;;;;;21.85;81.77;95042.41;4353491;32;20240;-58
2023/06/30 07:44:43;;;;;;;2.80;2.10;;;;;;;21.81;81.34;95048.94;4338911;32;20209;-57
2023/06/30 07:47:08;;;;;;;3.03;2.80;;;;;;;21.78;82.14;95041.59;4358208;32;20228;-57
2023/06/30 07:49:34;;;;;;;2.70;2.43;;;;;;;21.76;82.51;95044.66;4357844;32;20211;-58
2023/06/30 07:51:59;;;;;;;3.80;3.50;;;;;;;21.77;83.01;95045.44;4350665;32;20244;-57
2023/06/30 07:54:24;;;;;;;2.47;2.03;;;;;;;21.73;83.23;95052.72;4346466;32;20190;-57
2023/06/30 07:56:50;;;;;;;3.67;3.47;;;;;;;21.77;82.57;95045.44;4354121;32;20307;-57
2023/06/30 07:59:15;;;;;;;3.67;3.47;;;;;;;21.71;82.82;95045.00;4346646;32;20189;-58
2023/06/30 08:01:41;;;;;;;3.90;3.70;;;;;;;21.74;82.10;95046.94;4359493;32;20207;-64
2023/06/30 08:04:06;;;;;;;3.70;3.50;;;;;;;21.45;84.86;95050.50;4347569;32;20237;-62
2023/06/30 08:06:31;;;;;;;2.77;2.67;;;;;;;21.31;87.06;95050.34;4359617;32;20201;-63
2023/06/30 08:08:57;;;;;;;2.27;2.17;;;;;;;21.09;88.59;95058.16;4360566;32;20188;-63
2023/06/30 08:11:22;;;;;;;3.13;3.03;;;;;;;20.92;89.42;95066.78;4345587;32;20208;-63
2023/06/30 08:13:48;;;;;;;3.53;3.33;;;;;;;20.83;90.79;95063.56;4339926;32;20233;-63
2023/06/30 08:16:13;;;;;;;12.63;4.70;;;;;;;20.67;91.57;95057.59;4348040;32;20242;-63
2023/06/30 08:18:38;;;;;;;3.60;3.33;;;;;;;20.78;91.01;95059.31;4359452;32;20235;-62
2023/06/30 08:21:04;;;;;;;3.57;3.37;;;;;;;20.58;91.48;95057.84;4345704;32;20231;-63
2023/06/30 08:23:29;;;;;;;3.27;3.07;;;;;;;20.61;91.03;95061.72;4341555;32;20189;-63
2023/06/30 08:25:55;;;;;;;8.20;3.53;;;;;;;20.65;90.79;95062.56;4352959;32;20211;-63
2023/06/30 08:28:21;;;;;;;2.80;2.70;;;;;;;20.58;92.03;95064.00;4358871;32;20197;-61
2023/06/30 08:30:47;;;;;;;3.07;2.97;;;;;;;20.64;91.63;95067.16;4353278;32;20190;-62
2023/06/30 08:33:13;;;;;;;3.73;3.40;;;;;;;20.65;90.56;95062.56;4345338;32;20208;-61
2023/06/30 08:35:38;;;;;;;3.70;2.33;;;;;;;20.66;90.42;95066.81;4359982;32;20229;-63
2023/06/30 08:38:04;;;;;;;2.80;2.70;;;;;;;20.66;89.83;95064.13;4358328;32;20208;-62
2023/06/30 08:40:31;;;;;;;4.00;2.60;;;;;;;20.64;90.45;95066.38;4356948;32;20193;-63
2023/06/30 08:43:04;;;;;;;3.87;3.67;;;;;;;20.65;89.74;95068.72;4350763;32;20201;-62
2023/06/30 08:45:30;;;;;;;2.63;2.53;;;;;;;20.67;89.63;95061.06;4359787;32;20269;-64
2023/06/30 08:48:02;;;;;;;2.40;2.30;;;;;;;20.63;90.75;95064.84;4343670;32;20192;-63
2023/06/30 08:50:28;;;;;;;3.33;3.07;;;;;;;20.75;90.24;95061.94;4354448;32;20261;-62
2023/06/30 08:52:55;;;;;;;2.93;2.83;;;;;;;20.81;89.16;95065.84;4340105;32;20193;-62
2023/06/30 08:55:20;;;;;;;2.57;2.47;;;;;;;20.87;88.32;95067.88;4358075;32;20249;-62
2023/06/30 08:57:46;;;;;;;2.93;2.77;;;;;;;20.93;88.57;95062.97;4357607;32;20188;-62
2023/06/30 09:00:12;;;;;;;4.43;3.83;;;;;;;20.84;88.41;95065.91;4360181;32;20188;-62
2023/06/30 09:02:38;;;;;;;2.93;2.80;;;;;;;20.97;88.21;95071.09;4341826;32;20193;-63
2023/06/30 09:05:05;;;;;;;3.83;2.50;;;;;;;20.86;88.00;95069.03;4337654;32;20193;-62
2023/06/30 09:07:38;;;;;;;3.10;2.90;;;;;;;20.80;85.27;95065.09;4358955;32;20196;-62
2023/06/30 09:10:09;;;;;;;2.27;2.17;;;;;;;20.90;86.28;95067.16;4341631;32;20240;-62
2023/06/30 09:12:34;;;;;;;3.47;3.17;;;;;;;20.73;87.01;95064.22;4355108;32;20197;-63
2023/06/30 09:15:01;;;;;;;6.67;3.87;;;;;;;20.73;86.91;95056.13;4343837;32;20216;-63
2023/06/30 09:17:28;;;;;;;2.53;2.43;;;;;;;20.79;88.07;95068.13;4358377;32;20189;-64
2023/06/30 09:19:53;;;;;;;4.03;3.80;;;;;;;20.91;86.49;95067.94;4345457;32;20197;-64
2023/06/30 09:22:21;;;;;;;3.67;3.47;;;;;;;21.02;86.51;95057.28;4346531;32;20255;-63
2023/06/30 09:24:49;;;;;;;3.87;3.67;;;;;;;21.02;87.02;95052.66;4357922;32;20267;-64
2023/06/30 09:27:16;;;;;;;4.00;3.70;;;;;;;21.02;87.72;95060.75;4355872;32;20197;-64
2023/06/30 09:29:42;;;;;;;3.87;3.47;;;;;;;21.07;86.26;95057.72;4361153;32;20197;-64
2023/06/30 09:32:07;;;;;;;3.80;3.60;;;;;;;21.11;85.67;95053.16;4347618;32;20207;-64
2023/06/30 09:34:33;;;;;;;2.67;2.57;;;;;;;21.10;87.55;95056.22;4356061;32;20189;-64
2023/06/30 09:36:58;;;;;;;4.53;4.23;;;;;;;21.20;86.33;95056.38;4343149;32;20200;-64
2023/06/30 09:39:24;;;;;;;3.97;3.77;;;;;;;21.02;88.67;95062.66;4354459;32;20187;-64
2023/06/30 09:41:50;;;;;;;2.83;2.73;;;;;;;21.16;86.37;95060.16;4350083;32;20244;-64
2023/06/30 09:44:20;;;;;;;3.80;3.57;;;;;;;21.16;86.67;95060.16;4358030;32;20197;-63
2023/06/30 09:46:49;;;;;;;4.20;3.80;;;;;;;21.24;85.44;95057.19;4337448;32;20200;-64
2023/06/30 09:49:24;;;;;;;3.00;2.77;;;;;;;21.21;86.68;95057.94;4340744;32;20213;-65
2023/06/30 09:51:49;;;;;;;6.57;4.10;;;;;;;21.24;86.01;95057.19;4355784;32;20240;-63
2023/06/30 09:54:18;;;;;;;7.90;4.00;;;;;;;21.38;86.12;95051.22;4351645;32;20231;-64
2023/06/30 09:56:45;;;;;;;3.87;3.63;;;;;;;21.50;86.28;95055.56;4343705;32;20196;-62
2023/06/30 09:59:11;;;;;;;6.47;4.30;;;;;;;21.68;85.51;95058.44;4350999;32;20227;-64
2023/06/30 10:01:37;;;;;;;4.63;3.37;;;;;;;21.72;85.23;95054.63;4352993;32;20181;-63
2023/06/30 10:04:02;;;;;;;4.13;3.83;;;;;;;21.80;83.27;95056.28;4347203;32;20250;-65
2023/06/30 10:06:28;;;;;;;4.70;4.33;;;;;;;21.84;83.29;95057.06;4344743;32;20194;-64
2023/06/30 10:08:57;;;;;;;3.57;3.37;;;;;;;21.88;84.63;95047.06;4352976;32;20189;-64
2023/06/30 10:11:23;;;;;;;4.93;4.53;;;;;;;21.73;84.01;95044.63;4352128;32;20197;-64
2023/06/30 10:13:54;;;;;;;6.07;5.47;;;;;;;21.95;82.68;95040.97;4336583;32;20201;-64
2023/06/30 10:16:21;;;;;;;4.53;4.23;;;;;;;22.11;81.21;95048.84;4345944;32;20259;-63
2023/06/30 10:18:49;;;;;;;4.23;3.90;;;;;;;22.03;77.57;95044.56;4351651;32;20205;-63
2023/06/30 10:21:14;;;;;;;3.53;3.37;;;;;;;22.00;78.20;95047.97;4354211;32;20237;-63
2023/06/30 10:23:43;;;;;;;4.50;4.00;;;;;;;21.69;80.17;95055.37;4359904;32;20247;-63
2023/06/30 10:26:09;;;;;;;4.10;3.80;;;;;;;21.62;78.85;95045.28;4344664;32;20239;-63
2023/06/30 10:28:37;;;;;;;4.50;2.67;;;;;;;21.72;79.98;95048.47;4354576;32;20213;-62
2023/06/30 10:31:03;;;;;;;3.83;3.17;;;;;;;21.66;80.72;95039.13;4344077;32;20211;-63
2023/06/30 10:33:28;;;;;;;5.60;3.80;;;;;;;21.63;82.23;95046.06;4346933;32;20193;-64
2023/06/30 10:35:55;;;;;;;3.60;3.50;;;;;;;21.65;79.11;95042.97;4337977;32;20237;-63
2023/06/30 10:38:21;;;;;;;4.73;4.07;;;;;;;21.62;79.27;95041.78;4347017;32;20264;-65
2023/06/30 10:40:47;;;;;;;10.10;4.07;;;;;;;21.46;79.39;95039.31;4345052;32;20216;-64
2023/06/30 10:43:13;;;;;;;3.50;3.27;;;;;;;21.39;81.87;95041.19;4360313;32;20241;-64
2023/06/30 10:46:07;;;;;;;3.70;3.43;;;;;;;21.35;83.88;95043.84;4360169;32;20271;-64
2023/06/30 10:48:33;;;;;;;4.10;3.80;;;;;;;21.00;87.76;95052.25;4354858;32;20192;-65
2023/06/30 10:50:58;;;;;;;5.13;4.73;;;;;;;20.85;89.23;95055.91;4362800;32;20239;-64
2023/06/30 10:53:27;;;;;;;4.70;4.30;;;;;;;20.96;89.56;95053.34;4353914;32;20212;-63
2023/06/30 10:55:59;;;;;;;3.60;3.40;;;;;;;20.96;88.88;95059.53;4356644;32;20185;-62
2023/06/30 10:58:26;;;;;;;5.43;5.03;;;;;;;20.98;90.14;95065.34;4343534;32;20272;-62
2023/06/30 11:01:05;;;;;;;6.23;4.57;;;;;;;20.89;92.14;95057.50;4358648;32;20189;-63
2023/06/30 11:03:56;;;;;;;4.77;4.30;;;;;;;20.90;92.81;95063.69;4353863;32;20198;-64
2023/06/30 11:06:22;;;;;;;4.70;4.40;;;;;;;20.98;92.12;95064.56;4340897;32;20189;-64
2023/06/30 11:09:00;;;;;;;5.43;4.43;;;;;;;20.88;93.60;95055.97;4344873;32;20239;-63
2023/06/30 11:11:27;;;;;;;4.07;3.73;;;;;;;21.03;93.43;95045.34;4356903;32;20188;-63
2023/06/30 11:14:06;;;;;;;6.70;4.43;;;;;;;21.07;93.66;95046.94;4350227;32;20193;-63
2023/06/30 11:17:04;;;;;;;4.10;3.80;;;;;;;21.10;93.58;95046.22;4354856;32;20235;-64
2023/06/30 11:19:30;;;;;;;3.73;3.53;;;;;;;21.12;94.14;95041.22;4343976;32;20254;-63
2023/06/30 11:22:20;;;;;;;4.13;3.93;;;;;;;21.12;93.58;95038.53;4340776;32;20197;-63
2023/06/30 11:24:46;;;;;;;4.77;3.87;;;;;;;21.21;93.75;95030.94;4360641;32;20193;-64
2023/06/30 11:27:12;;;;;;;4.93;4.57;;;;;;;21.18;95.56;95031.69;4336697;32;20196;-62
2023/06/30 11:29:39;;;;;;;2.63;2.50;;;;;;;21.12;95.91;95038.53;4356044;32;20216;-67
2023/06/30 11:32:05;;;;;;;5.07;4.40;;;;;;;21.09;94.76;95035.78;4345995;32;20213;-63